BAW4MJ EGLL-LEMD
Flight info
| Callsign | BAW4MJ |
|---|---|
| Flight time | 1h 51m |
| Altitude | 31000 |
| Route | GASGU N866 SAM M195 MARUK N621 LELNA/N0444F330 DCT NOVAN DCT DELOG N864 NONTU |
| Aircraft | A320/M-SDE3FGHIRWY/LB1 |
Departure
| Time | 2026-05-07 16:33 |
|---|---|
| Airport | London Heathrow Airport (EGLL) |
Arrival
| Time | 2026-05-07 18:24 |
|---|---|
| Airport | Adolfo Suárez Madrid–Barajas Airport (LEMD) |
| Time | Latitude | Longitude | Altitude | Speed | Heading |
|---|---|---|---|---|---|
| 2026-05-07 15:57 | 51.47086 | -0.48585 | 88 ft | 0 kts | 269° |
| 2026-05-07 15:57 | 51.47086 | -0.48593 | 89 ft | 0 kts | 269° |
| 2026-05-07 16:21 | 51.47086 | -0.48588 | 87 ft | 3 kts | 269° |
| 2026-05-07 16:22 | 51.47087 | -0.48545 | 87 ft | 4 kts | 269° |
| 2026-05-07 16:22 | 51.47089 | -0.48503 | 87 ft | 4 kts | 248° |
| 2026-05-07 16:22 | 51.47103 | -0.48476 | 88 ft | 4 kts | 188° |
| 2026-05-07 16:22 | 51.47116 | -0.48474 | 88 ft | 0 kts | 179° |
| 2026-05-07 16:25 | 51.47114 | -0.48474 | 87 ft | 1 kts | 179° |
| 2026-05-07 16:25 | 51.47095 | -0.48474 | 89 ft | 4 kts | 179° |
| 2026-05-07 16:26 | 51.47059 | -0.48474 | 87 ft | 6 kts | 179° |
| 2026-05-07 16:26 | 51.47001 | -0.48473 | 87 ft | 10 kts | 179° |
| 2026-05-07 16:26 | 51.46926 | -0.48472 | 87 ft | 12 kts | 179° |
| 2026-05-07 16:26 | 51.46839 | -0.48471 | 88 ft | 14 kts | 179° |
| 2026-05-07 16:27 | 51.46754 | -0.48487 | 90 ft | 11 kts | 221° |
| 2026-05-07 16:27 | 51.46741 | -0.48615 | 87 ft | 9 kts | 270° |
| 2026-05-07 16:27 | 51.46741 | -0.48646 | 87 ft | 0 kts | 270° |
| 2026-05-07 16:28 | 51.46741 | -0.48647 | 87 ft | 1 kts | 270° |
| 2026-05-07 16:28 | 51.46741 | -0.48671 | 87 ft | 3 kts | 269° |
| 2026-05-07 16:28 | 51.46727 | -0.48728 | 88 ft | 8 kts | 225° |
| 2026-05-07 16:28 | 51.46674 | -0.48750 | 87 ft | 6 kts | 181° |
| 2026-05-07 16:29 | 51.46671 | -0.48750 | 87 ft | 1 kts | 181° |
| 2026-05-07 16:29 | 51.46651 | -0.48751 | 88 ft | 7 kts | 181° |
| 2026-05-07 16:29 | 51.46600 | -0.48770 | 90 ft | 5 kts | 201° |
| 2026-05-07 16:29 | 51.46599 | -0.48771 | 90 ft | 0 kts | 201° |
| 2026-05-07 16:30 | 51.46585 | -0.48780 | 88 ft | 8 kts | 200° |
| 2026-05-07 16:30 | 51.46510 | -0.48772 | 90 ft | 12 kts | 150° |
| 2026-05-07 16:30 | 51.46478 | -0.48650 | 88 ft | 13 kts | 91° |
| 2026-05-07 16:31 | 51.46478 | -0.48608 | 88 ft | 0 kts | 91° |
| 2026-05-07 16:31 | 51.46478 | -0.48607 | 88 ft | 0 kts | 91° |
| 2026-05-07 16:31 | 51.46478 | -0.48603 | 88 ft | 1 kts | 91° |
| 2026-05-07 16:32 | 51.46478 | -0.48574 | 88 ft | 4 kts | 90° |
| 2026-05-07 16:32 | 51.46478 | -0.48455 | 88 ft | 33 kts | 90° |
| 2026-05-07 16:32 | 51.46480 | -0.47715 | 86 ft | 97 kts | 89° |
| 2026-05-07 16:32 | 51.46484 | -0.46341 | 92 ft | 144 kts | 90° |
| 2026-05-07 16:33 | 51.46471 | -0.44671 | 523 ft | 146 kts | 92° |
| 2026-05-07 16:33 | 51.46490 | -0.43012 | 1080 ft | 150 kts | 90° |
| 2026-05-07 16:33 | 51.46337 | -0.41299 | 1443 ft | 163 kts | 120° |
| 2026-05-07 16:33 | 51.45674 | -0.39739 | 1737 ft | 183 kts | 127° |
| 2026-05-07 16:34 | 51.44879 | -0.37946 | 2045 ft | 206 kts | 126° |
| 2026-05-07 16:34 | 51.44012 | -0.35965 | 2391 ft | 226 kts | 126° |
| 2026-05-07 16:34 | 51.42897 | -0.34077 | 2744 ft | 248 kts | 147° |
| 2026-05-07 16:34 | 51.41298 | -0.32959 | 3446 ft | 256 kts | 170° |
| 2026-05-07 16:35 | 51.39514 | -0.32949 | 4278 ft | 260 kts | 193° |
| 2026-05-07 16:35 | 51.37853 | -0.34113 | 5120 ft | 265 kts | 217° |
| 2026-05-07 16:35 | 51.36470 | -0.36059 | 5773 ft | 269 kts | 222° |
| 2026-05-07 16:35 | 51.35085 | -0.38083 | 5968 ft | 269 kts | 222° |
| 2026-05-07 16:36 | 51.33697 | -0.40106 | 6008 ft | 268 kts | 222° |
| 2026-05-07 16:36 | 51.32318 | -0.42110 | 6007 ft | 272 kts | 222° |
| 2026-05-07 16:36 | 51.30988 | -0.44357 | 6011 ft | 287 kts | 234° |
| 2026-05-07 16:36 | 51.30045 | -0.47238 | 6012 ft | 300 kts | 252° |
| 2026-05-07 16:37 | 51.29461 | -0.50484 | 6010 ft | 310 kts | 254° |
| 2026-05-07 16:37 | 51.28863 | -0.53847 | 6009 ft | 315 kts | 254° |
| 2026-05-07 16:37 | 51.28260 | -0.57194 | 6008 ft | 315 kts | 254° |
| 2026-05-07 16:37 | 51.27631 | -0.60553 | 6010 ft | 320 kts | 253° |
| 2026-05-07 16:38 | 51.26956 | -0.64036 | 6010 ft | 334 kts | 253° |
| 2026-05-07 16:38 | 51.26256 | -0.67587 | 6010 ft | 336 kts | 252° |
| 2026-05-07 16:38 | 51.25546 | -0.71178 | 6009 ft | 337 kts | 252° |
| 2026-05-07 16:38 | 51.24845 | -0.74721 | 6050 ft | 339 kts | 252° |
| 2026-05-07 16:39 | 51.24136 | -0.78328 | 6798 ft | 340 kts | 252° |
| 2026-05-07 16:39 | 51.23429 | -0.81937 | 7599 ft | 342 kts | 252° |
| 2026-05-07 16:39 | 51.22715 | -0.85560 | 8391 ft | 343 kts | 251° |
| 2026-05-07 16:39 | 51.21997 | -0.89197 | 9207 ft | 345 kts | 251° |
| 2026-05-07 16:40 | 51.21272 | -0.92863 | 9931 ft | 348 kts | 250° |
| 2026-05-07 16:40 | 51.20228 | -0.96298 | 10868 ft | 337 kts | 233° |
| 2026-05-07 16:40 | 51.18698 | -0.99122 | 11498 ft | 344 kts | 225° |
| 2026-05-07 16:40 | 51.16899 | -1.01715 | 11922 ft | 353 kts | 213° |
| 2026-05-07 16:41 | 51.14782 | -1.03777 | 12519 ft | 358 kts | 211° |
| 2026-05-07 16:41 | 51.12642 | -1.05813 | 13167 ft | 361 kts | 210° |
| 2026-05-07 16:41 | 51.10465 | -1.07870 | 13832 ft | 365 kts | 210° |
| 2026-05-07 16:41 | 51.08277 | -1.09930 | 14556 ft | 361 kts | 210° |
| 2026-05-07 16:42 | 51.06136 | -1.11945 | 15469 ft | 356 kts | 211° |
| 2026-05-07 16:42 | 51.03992 | -1.13961 | 16132 ft | 357 kts | 211° |
| 2026-05-07 16:42 | 51.01889 | -1.15935 | 16722 ft | 359 kts | 211° |
| 2026-05-07 16:42 | 50.99730 | -1.17956 | 17316 ft | 362 kts | 211° |
| 2026-05-07 16:43 | 50.97538 | -1.20000 | 17927 ft | 365 kts | 211° |
| 2026-05-07 16:43 | 50.95341 | -1.22051 | 18496 ft | 368 kts | 211° |
| 2026-05-07 16:43 | 50.93128 | -1.24120 | 19046 ft | 371 kts | 211° |
| 2026-05-07 16:43 | 50.90897 | -1.26203 | 19603 ft | 374 kts | 211° |
| 2026-05-07 16:44 | 50.88647 | -1.28298 | 20162 ft | 377 kts | 211° |
| 2026-05-07 16:44 | 50.86382 | -1.30407 | 20708 ft | 379 kts | 211° |
| 2026-05-07 16:44 | 50.84096 | -1.32530 | 21240 ft | 382 kts | 211° |
| 2026-05-07 16:44 | 50.81807 | -1.34653 | 21766 ft | 385 kts | 211° |
| 2026-05-07 16:45 | 50.79480 | -1.36814 | 22269 ft | 388 kts | 211° |
| 2026-05-07 16:45 | 50.77145 | -1.38981 | 22752 ft | 390 kts | 211° |
| 2026-05-07 16:45 | 50.74794 | -1.41161 | 23263 ft | 393 kts | 211° |
| 2026-05-07 16:45 | 50.72427 | -1.43352 | 23709 ft | 396 kts | 211° |
| 2026-05-07 16:46 | 50.70041 | -1.45553 | 24105 ft | 398 kts | 211° |
| 2026-05-07 16:46 | 50.67643 | -1.47764 | 24498 ft | 400 kts | 211° |
| 2026-05-07 16:46 | 50.65233 | -1.49983 | 24887 ft | 402 kts | 211° |
| 2026-05-07 16:46 | 50.62809 | -1.52212 | 25264 ft | 404 kts | 211° |
| 2026-05-07 16:47 | 50.60373 | -1.54450 | 25631 ft | 407 kts | 211° |
| 2026-05-07 16:47 | 50.57925 | -1.56698 | 25998 ft | 409 kts | 211° |
| 2026-05-07 16:47 | 50.55464 | -1.58954 | 26363 ft | 411 kts | 211° |
| 2026-05-07 16:47 | 50.52987 | -1.61217 | 26717 ft | 413 kts | 211° |
| 2026-05-07 16:48 | 50.50500 | -1.63487 | 27074 ft | 415 kts | 211° |
| 2026-05-07 16:48 | 50.48000 | -1.65770 | 27428 ft | 417 kts | 211° |
| 2026-05-07 16:48 | 50.45490 | -1.68062 | 27781 ft | 418 kts | 211° |
| 2026-05-07 16:48 | 50.42967 | -1.70363 | 28132 ft | 420 kts | 211° |
| 2026-05-07 16:49 | 50.40431 | -1.72668 | 28471 ft | 422 kts | 211° |
| 2026-05-07 16:49 | 50.37880 | -1.74988 | 28799 ft | 425 kts | 211° |
| 2026-05-07 16:49 | 50.35339 | -1.77300 | 29125 ft | 427 kts | 211° |
| 2026-05-07 16:49 | 50.32770 | -1.79638 | 29509 ft | 427 kts | 211° |
| 2026-05-07 16:50 | 50.30204 | -1.81967 | 29985 ft | 426 kts | 211° |
| 2026-05-07 16:50 | 50.27621 | -1.84301 | 30402 ft | 425 kts | 211° |
| 2026-05-07 16:50 | 50.25066 | -1.86602 | 30834 ft | 423 kts | 211° |
| 2026-05-07 16:50 | 50.22519 | -1.88892 | 31265 ft | 422 kts | 211° |
| 2026-05-07 16:51 | 50.19983 | -1.91171 | 31693 ft | 420 kts | 211° |
| 2026-05-07 16:51 | 50.17457 | -1.93443 | 32116 ft | 419 kts | 211° |
| 2026-05-07 16:51 | 50.14938 | -1.95714 | 32540 ft | 417 kts | 211° |
| 2026-05-07 16:51 | 50.12427 | -1.97976 | 32928 ft | 417 kts | 211° |
| 2026-05-07 16:52 | 50.09910 | -2.00237 | 33025 ft | 419 kts | 211° |
| 2026-05-07 16:52 | 50.04842 | -2.04775 | 33029 ft | 421 kts | 210° |
| 2026-05-07 16:53 | 49.99757 | -2.09294 | 33029 ft | 421 kts | 209° |
| 2026-05-07 16:53 | 49.94272 | -2.12500 | 33020 ft | 423 kts | 198° |
| 2026-05-07 16:54 | 49.88628 | -2.15123 | 33028 ft | 424 kts | 198° |
| 2026-05-07 16:54 | 49.83955 | -2.17320 | 33050 ft | 424 kts | 198° |
| 2026-05-07 16:55 | 49.78257 | -2.19983 | 33028 ft | 433 kts | 198° |
| 2026-05-07 16:55 | 49.72425 | -2.22690 | 33024 ft | 440 kts | 198° |
| 2026-05-07 16:56 | 49.66560 | -2.25416 | 33052 ft | 440 kts | 197° |
| 2026-05-07 16:56 | 49.57779 | -2.29471 | 33027 ft | 439 kts | 197° |
| 2026-05-07 16:57 | 49.51928 | -2.32163 | 33008 ft | 439 kts | 197° |
| 2026-05-07 16:57 | 49.46072 | -2.34839 | 33013 ft | 439 kts | 197° |
| 2026-05-07 16:58 | 49.40215 | -2.37527 | 33015 ft | 439 kts | 197° |
| 2026-05-07 16:58 | 49.34351 | -2.40207 | 33013 ft | 440 kts | 197° |
| 2026-05-07 16:59 | 49.28486 | -2.42882 | 33022 ft | 440 kts | 197° |
| 2026-05-07 16:59 | 49.22620 | -2.45550 | 33008 ft | 440 kts | 197° |
| 2026-05-07 17:00 | 49.16761 | -2.48202 | 33013 ft | 440 kts | 197° |
| 2026-05-07 17:00 | 49.10886 | -2.50857 | 33011 ft | 440 kts | 197° |
| 2026-05-07 17:01 | 49.05018 | -2.53504 | 33011 ft | 440 kts | 198° |
| 2026-05-07 17:01 | 48.99155 | -2.56161 | 33010 ft | 439 kts | 198° |
| 2026-05-07 17:02 | 48.93297 | -2.58791 | 33013 ft | 439 kts | 197° |
| 2026-05-07 17:02 | 48.87445 | -2.61419 | 33014 ft | 438 kts | 197° |
| 2026-05-07 17:03 | 48.81597 | -2.64024 | 33020 ft | 438 kts | 197° |
| 2026-05-07 17:03 | 48.75761 | -2.66618 | 33016 ft | 437 kts | 197° |
| 2026-05-07 17:04 | 48.69936 | -2.69220 | 33014 ft | 436 kts | 197° |
| 2026-05-07 17:04 | 48.64117 | -2.71803 | 33009 ft | 436 kts | 197° |
| 2026-05-07 17:05 | 48.58300 | -2.74376 | 32987 ft | 435 kts | 197° |
| 2026-05-07 17:05 | 48.52489 | -2.76943 | 32990 ft | 435 kts | 197° |
| 2026-05-07 17:06 | 48.46675 | -2.79508 | 32982 ft | 435 kts | 197° |
| 2026-05-07 17:06 | 48.40858 | -2.82059 | 32984 ft | 435 kts | 197° |
| 2026-05-07 17:07 | 48.35039 | -2.84599 | 32979 ft | 436 kts | 197° |
| 2026-05-07 17:07 | 48.29214 | -2.87144 | 32989 ft | 436 kts | 197° |
| 2026-05-07 17:08 | 48.23382 | -2.89697 | 32976 ft | 437 kts | 197° |
| 2026-05-07 17:08 | 48.17547 | -2.92238 | 32988 ft | 437 kts | 197° |
| 2026-05-07 17:09 | 48.11708 | -2.94767 | 32984 ft | 437 kts | 197° |
| 2026-05-07 17:09 | 48.05871 | -2.97295 | 32990 ft | 437 kts | 197° |
| 2026-05-07 17:10 | 48.00068 | -2.99801 | 33001 ft | 437 kts | 197° |
| 2026-05-07 17:10 | 47.94231 | -3.02315 | 32985 ft | 437 kts | 197° |
| 2026-05-07 17:11 | 47.88387 | -3.04842 | 32994 ft | 437 kts | 197° |
| 2026-05-07 17:11 | 47.82538 | -3.07349 | 32993 ft | 438 kts | 197° |
| 2026-05-07 17:12 | 47.76680 | -3.09845 | 33005 ft | 438 kts | 197° |
| 2026-05-07 17:12 | 47.70822 | -3.12356 | 33000 ft | 438 kts | 197° |
| 2026-05-07 17:13 | 47.64961 | -3.14865 | 33003 ft | 438 kts | 197° |
| 2026-05-07 17:13 | 47.59094 | -3.17355 | 33004 ft | 439 kts | 197° |
| 2026-05-07 17:14 | 47.53225 | -3.19840 | 32995 ft | 439 kts | 197° |
| 2026-05-07 17:14 | 47.47352 | -3.22323 | 32995 ft | 439 kts | 197° |
| 2026-05-07 17:15 | 47.41485 | -3.24802 | 33004 ft | 439 kts | 197° |
| 2026-05-07 17:15 | 47.35614 | -3.27275 | 32996 ft | 439 kts | 197° |
| 2026-05-07 17:16 | 47.29745 | -3.29740 | 32990 ft | 439 kts | 197° |
| 2026-05-07 17:16 | 47.23868 | -3.32209 | 32997 ft | 440 kts | 197° |
| 2026-05-07 17:17 | 47.17972 | -3.34673 | 32990 ft | 441 kts | 197° |
| 2026-05-07 17:17 | 47.12070 | -3.37136 | 32988 ft | 441 kts | 197° |
| 2026-05-07 17:18 | 47.06157 | -3.39594 | 32984 ft | 442 kts | 197° |
| 2026-05-07 17:18 | 47.00237 | -3.42052 | 32991 ft | 442 kts | 197° |
| 2026-05-07 17:19 | 46.94317 | -3.44511 | 32986 ft | 442 kts | 197° |
| 2026-05-07 17:19 | 46.88393 | -3.46963 | 32982 ft | 442 kts | 197° |
| 2026-05-07 17:20 | 46.82467 | -3.49404 | 32985 ft | 443 kts | 197° |
| 2026-05-07 17:20 | 46.76536 | -3.51842 | 32988 ft | 443 kts | 197° |
| 2026-05-07 17:21 | 46.70612 | -3.54271 | 32995 ft | 443 kts | 197° |
| 2026-05-07 17:21 | 46.64679 | -3.56705 | 32997 ft | 443 kts | 197° |
| 2026-05-07 17:22 | 46.58741 | -3.59133 | 32993 ft | 443 kts | 197° |
| 2026-05-07 17:22 | 46.52846 | -3.61549 | 32993 ft | 443 kts | 197° |
| 2026-05-07 17:23 | 46.46904 | -3.63982 | 32980 ft | 444 kts | 197° |
| 2026-05-07 17:23 | 46.40940 | -3.66398 | 32976 ft | 446 kts | 197° |
| 2026-05-07 17:24 | 46.34956 | -3.68812 | 32976 ft | 447 kts | 197° |
| 2026-05-07 17:24 | 46.28839 | -3.70421 | 32964 ft | 449 kts | 187° |
| 2026-05-07 17:25 | 46.22631 | -3.71350 | 32967 ft | 450 kts | 188° |
| 2026-05-07 17:25 | 46.16396 | -3.72290 | 32976 ft | 451 kts | 188° |
| 2026-05-07 17:26 | 46.10159 | -3.73219 | 32973 ft | 451 kts | 188° |
| 2026-05-07 17:26 | 46.03914 | -3.74142 | 32982 ft | 451 kts | 188° |
| 2026-05-07 17:27 | 45.97666 | -3.75066 | 32985 ft | 451 kts | 188° |
| 2026-05-07 17:27 | 45.91419 | -3.75991 | 32987 ft | 451 kts | 188° |
| 2026-05-07 17:28 | 45.85181 | -3.76915 | 32981 ft | 451 kts | 188° |
| 2026-05-07 17:28 | 45.78933 | -3.77840 | 32979 ft | 451 kts | 188° |
| 2026-05-07 17:29 | 45.72681 | -3.78754 | 32982 ft | 451 kts | 188° |
| 2026-05-07 17:29 | 45.66436 | -3.79664 | 32975 ft | 451 kts | 188° |
| 2026-05-07 17:30 | 45.60187 | -3.80583 | 32973 ft | 451 kts | 188° |
| 2026-05-07 17:30 | 45.53941 | -3.81496 | 32974 ft | 451 kts | 188° |
| 2026-05-07 17:31 | 45.47693 | -3.82400 | 32958 ft | 451 kts | 188° |
| 2026-05-07 17:31 | 45.41440 | -3.83301 | 32959 ft | 452 kts | 188° |
| 2026-05-07 17:32 | 45.35185 | -3.84216 | 32958 ft | 452 kts | 188° |
| 2026-05-07 17:32 | 45.29984 | -3.84973 | 32954 ft | 452 kts | 188° |
| 2026-05-07 17:33 | 45.22673 | -3.86026 | 32954 ft | 452 kts | 188° |
| 2026-05-07 17:33 | 45.16398 | -3.86924 | 32926 ft | 454 kts | 188° |
| 2026-05-07 17:34 | 45.10097 | -3.87823 | 32914 ft | 456 kts | 188° |
| 2026-05-07 17:34 | 45.03822 | -3.88713 | 32916 ft | 457 kts | 188° |
| 2026-05-07 17:35 | 44.97499 | -3.89627 | 32920 ft | 457 kts | 188° |
| 2026-05-07 17:35 | 44.91171 | -3.90544 | 32911 ft | 457 kts | 188° |
| 2026-05-07 17:36 | 44.84841 | -3.91445 | 32914 ft | 457 kts | 188° |
| 2026-05-07 17:36 | 44.78504 | -3.92334 | 32920 ft | 458 kts | 188° |
| 2026-05-07 17:37 | 44.72169 | -3.93218 | 32922 ft | 458 kts | 188° |
| 2026-05-07 17:37 | 44.65829 | -3.94111 | 32927 ft | 458 kts | 188° |
| 2026-05-07 17:38 | 44.59488 | -3.95006 | 32925 ft | 458 kts | 188° |
| 2026-05-07 17:38 | 44.53150 | -3.95899 | 32918 ft | 458 kts | 188° |
| 2026-05-07 17:39 | 44.46810 | -3.96793 | 32913 ft | 458 kts | 188° |
| 2026-05-07 17:39 | 44.40467 | -3.97682 | 32920 ft | 458 kts | 188° |
| 2026-05-07 17:40 | 44.35197 | -3.98422 | 32914 ft | 458 kts | 188° |
| 2026-05-07 17:40 | 44.28798 | -3.98349 | 32916 ft | 462 kts | 179° |
| 2026-05-07 17:41 | 44.22386 | -3.97707 | 32908 ft | 462 kts | 179° |
| 2026-05-07 17:41 | 44.15968 | -3.97085 | 32906 ft | 462 kts | 179° |
| 2026-05-07 17:42 | 44.09554 | -3.96466 | 32890 ft | 463 kts | 179° |
| 2026-05-07 17:42 | 44.03130 | -3.95843 | 32887 ft | 463 kts | 179° |
| 2026-05-07 17:43 | 43.96703 | -3.95218 | 32890 ft | 463 kts | 179° |
| 2026-05-07 17:43 | 43.90267 | -3.94592 | 32872 ft | 464 kts | 179° |
| 2026-05-07 17:44 | 43.83811 | -3.93966 | 32872 ft | 466 kts | 179° |
| 2026-05-07 17:44 | 43.77337 | -3.93337 | 32878 ft | 467 kts | 179° |
| 2026-05-07 17:45 | 43.70851 | -3.92715 | 32874 ft | 467 kts | 179° |
| 2026-05-07 17:45 | 43.64358 | -3.92095 | 32879 ft | 468 kts | 179° |
| 2026-05-07 17:46 | 43.57859 | -3.91465 | 32884 ft | 469 kts | 179° |
| 2026-05-07 17:46 | 43.51346 | -3.90838 | 32870 ft | 470 kts | 179° |
| 2026-05-07 17:47 | 43.44821 | -3.90358 | 32873 ft | 468 kts | 185° |
| 2026-05-07 17:47 | 43.38372 | -3.91215 | 32882 ft | 466 kts | 190° |
| 2026-05-07 17:48 | 43.31945 | -3.92178 | 32875 ft | 466 kts | 190° |
| 2026-05-07 17:48 | 43.25465 | -3.93135 | 32881 ft | 467 kts | 190° |
| 2026-05-07 17:49 | 43.18993 | -3.94083 | 32892 ft | 468 kts | 190° |
| 2026-05-07 17:49 | 43.12515 | -3.95034 | 32889 ft | 468 kts | 190° |
| 2026-05-07 17:50 | 43.06037 | -3.95985 | 32912 ft | 468 kts | 190° |
| 2026-05-07 17:50 | 42.99554 | -3.96938 | 32925 ft | 468 kts | 190° |
| 2026-05-07 17:51 | 42.93121 | -3.97888 | 32925 ft | 468 kts | 190° |
| 2026-05-07 17:51 | 42.86643 | -3.98834 | 32932 ft | 468 kts | 190° |
| 2026-05-07 17:52 | 42.80190 | -3.99769 | 32935 ft | 468 kts | 190° |
| 2026-05-07 17:52 | 42.73724 | -4.00708 | 32936 ft | 467 kts | 190° |
| 2026-05-07 17:53 | 42.67330 | -4.01637 | 32935 ft | 460 kts | 190° |
| 2026-05-07 17:53 | 42.60908 | -4.02574 | 32934 ft | 466 kts | 190° |
| 2026-05-07 17:54 | 42.54443 | -4.03504 | 32938 ft | 468 kts | 190° |
| 2026-05-07 17:54 | 42.47966 | -4.04441 | 32937 ft | 469 kts | 191° |
| 2026-05-07 17:55 | 42.41481 | -4.05384 | 32937 ft | 469 kts | 191° |
| 2026-05-07 17:55 | 42.34990 | -4.06312 | 32936 ft | 469 kts | 191° |
| 2026-05-07 17:56 | 42.28498 | -4.07246 | 32919 ft | 469 kts | 191° |
| 2026-05-07 17:56 | 42.22026 | -4.08167 | 32925 ft | 469 kts | 191° |
| 2026-05-07 17:57 | 42.16628 | -4.08932 | 32923 ft | 469 kts | 191° |
| 2026-05-07 17:57 | 42.09033 | -4.10018 | 32912 ft | 470 kts | 192° |
| 2026-05-07 17:58 | 42.02503 | -4.10950 | 32912 ft | 471 kts | 191° |
| 2026-05-07 17:58 | 41.95996 | -4.11763 | 32923 ft | 472 kts | 190° |
| 2026-05-07 17:59 | 41.89423 | -4.12464 | 32900 ft | 472 kts | 191° |
| 2026-05-07 17:59 | 41.82868 | -4.13166 | 32905 ft | 473 kts | 191° |
| 2026-05-07 18:00 | 41.76328 | -4.13904 | 32907 ft | 471 kts | 191° |
| 2026-05-07 18:00 | 41.73104 | -4.14265 | 32761 ft | 460 kts | 191° |
| 2026-05-07 18:00 | 41.69934 | -4.14621 | 32177 ft | 456 kts | 191° |
| 2026-05-07 18:01 | 41.66774 | -4.14985 | 31420 ft | 457 kts | 191° |
| 2026-05-07 18:01 | 41.63612 | -4.15352 | 30821 ft | 455 kts | 191° |
| 2026-05-07 18:01 | 41.60447 | -4.15715 | 30280 ft | 452 kts | 190° |
| 2026-05-07 18:01 | 41.57349 | -4.16066 | 29711 ft | 448 kts | 190° |
| 2026-05-07 18:02 | 41.51190 | -4.16756 | 28584 ft | 439 kts | 189° |
| 2026-05-07 18:02 | 41.48143 | -4.17095 | 28041 ft | 434 kts | 190° |
| 2026-05-07 18:02 | 41.45146 | -4.17432 | 27493 ft | 430 kts | 190° |
| 2026-05-07 18:03 | 41.42231 | -4.17760 | 26994 ft | 426 kts | 189° |
| 2026-05-07 18:03 | 41.39294 | -4.18092 | 26503 ft | 421 kts | 189° |
| 2026-05-07 18:03 | 41.36389 | -4.18425 | 26034 ft | 417 kts | 189° |
| 2026-05-07 18:03 | 41.33465 | -4.18785 | 25564 ft | 412 kts | 189° |
| 2026-05-07 18:04 | 41.30622 | -4.19109 | 25137 ft | 408 kts | 188° |
| 2026-05-07 18:04 | 41.27823 | -4.19414 | 24724 ft | 404 kts | 188° |
| 2026-05-07 18:04 | 41.25015 | -4.19697 | 24281 ft | 401 kts | 186° |
| 2026-05-07 18:04 | 41.22249 | -4.19900 | 23879 ft | 398 kts | 185° |
| 2026-05-07 18:05 | 41.19480 | -4.20050 | 23495 ft | 395 kts | 184° |
| 2026-05-07 18:05 | 41.16795 | -4.20175 | 23065 ft | 392 kts | 184° |
| 2026-05-07 18:05 | 41.14082 | -4.20238 | 22625 ft | 390 kts | 178° |
| 2026-05-07 18:05 | 41.11391 | -4.19478 | 22184 ft | 390 kts | 162° |
| 2026-05-07 18:06 | 41.08881 | -4.18203 | 21713 ft | 388 kts | 161° |
| 2026-05-07 18:06 | 41.06361 | -4.16899 | 21261 ft | 385 kts | 160° |
| 2026-05-07 18:06 | 41.03882 | -4.15603 | 20774 ft | 382 kts | 160° |
| 2026-05-07 18:06 | 41.01448 | -4.14326 | 20318 ft | 380 kts | 160° |
| 2026-05-07 18:07 | 40.99001 | -4.13047 | 19880 ft | 377 kts | 160° |
| 2026-05-07 18:07 | 40.96573 | -4.11781 | 19440 ft | 374 kts | 160° |
| 2026-05-07 18:07 | 40.94163 | -4.10527 | 19007 ft | 370 kts | 160° |
| 2026-05-07 18:07 | 40.91778 | -4.09286 | 18563 ft | 367 kts | 160° |
| 2026-05-07 18:08 | 40.89426 | -4.08061 | 18113 ft | 364 kts | 161° |
| 2026-05-07 18:08 | 40.87088 | -4.06845 | 17765 ft | 357 kts | 161° |
| 2026-05-07 18:08 | 40.84781 | -4.05650 | 17196 ft | 356 kts | 160° |
| 2026-05-07 18:08 | 40.82463 | -4.04454 | 16684 ft | 354 kts | 161° |
| 2026-05-07 18:09 | 40.80193 | -4.03284 | 16190 ft | 351 kts | 160° |
| 2026-05-07 18:09 | 40.77912 | -4.02109 | 15726 ft | 348 kts | 160° |
| 2026-05-07 18:09 | 40.75665 | -4.00952 | 15285 ft | 345 kts | 160° |
| 2026-05-07 18:09 | 40.73439 | -3.99808 | 14972 ft | 342 kts | 160° |
| 2026-05-07 18:10 | 40.71229 | -3.98674 | 14937 ft | 344 kts | 160° |
| 2026-05-07 18:10 | 40.69005 | -3.97531 | 14759 ft | 341 kts | 161° |
| 2026-05-07 18:10 | 40.66785 | -3.96387 | 14280 ft | 339 kts | 160° |
| 2026-05-07 18:10 | 40.64594 | -3.95255 | 13855 ft | 337 kts | 160° |
| 2026-05-07 18:11 | 40.62426 | -3.94134 | 13412 ft | 333 kts | 160° |
| 2026-05-07 18:11 | 40.60999 | -3.93396 | 13078 ft | 332 kts | 160° |
| 2026-05-07 18:11 | 40.58125 | -3.91920 | 12430 ft | 330 kts | 161° |
| 2026-05-07 18:11 | 40.56011 | -3.90839 | 12006 ft | 326 kts | 160° |
| 2026-05-07 18:12 | 40.53902 | -3.89761 | 11563 ft | 324 kts | 161° |
| 2026-05-07 18:12 | 40.51814 | -3.88690 | 11130 ft | 322 kts | 161° |
| 2026-05-07 18:12 | 40.49718 | -3.87614 | 10693 ft | 320 kts | 161° |
| 2026-05-07 18:12 | 40.47665 | -3.86563 | 10259 ft | 318 kts | 160° |
| 2026-05-07 18:13 | 40.45610 | -3.85513 | 10010 ft | 317 kts | 160° |
| 2026-05-07 18:13 | 40.43543 | -3.84457 | 9999 ft | 319 kts | 160° |
| 2026-05-07 18:13 | 40.41623 | -3.83001 | 9995 ft | 322 kts | 141° |
| 2026-05-07 18:13 | 40.40076 | -3.80856 | 9993 ft | 325 kts | 133° |
| 2026-05-07 18:14 | 40.38588 | -3.78621 | 9920 ft | 324 kts | 133° |
| 2026-05-07 18:14 | 40.37115 | -3.76396 | 9453 ft | 322 kts | 133° |
| 2026-05-07 18:14 | 40.35653 | -3.74178 | 8983 ft | 320 kts | 133° |
| 2026-05-07 18:14 | 40.34202 | -3.71979 | 8544 ft | 318 kts | 132° |
| 2026-05-07 18:15 | 40.32760 | -3.69799 | 8119 ft | 315 kts | 133° |
| 2026-05-07 18:15 | 40.31329 | -3.67641 | 7695 ft | 313 kts | 133° |
| 2026-05-07 18:15 | 40.29909 | -3.65501 | 7297 ft | 310 kts | 132° |
| 2026-05-07 18:15 | 40.28496 | -3.63375 | 6895 ft | 308 kts | 132° |
| 2026-05-07 18:16 | 40.27098 | -3.61275 | 6496 ft | 304 kts | 133° |
| 2026-05-07 18:16 | 40.25710 | -3.59195 | 6116 ft | 302 kts | 132° |
| 2026-05-07 18:16 | 40.24334 | -3.57136 | 5994 ft | 301 kts | 132° |
| 2026-05-07 18:16 | 40.22959 | -3.55076 | 6007 ft | 301 kts | 132° |
| 2026-05-07 18:17 | 40.21612 | -3.53058 | 6009 ft | 287 kts | 132° |
| 2026-05-07 18:17 | 40.20328 | -3.51136 | 6007 ft | 274 kts | 132° |
| 2026-05-07 18:17 | 40.19109 | -3.49306 | 6012 ft | 260 kts | 133° |
| 2026-05-07 18:17 | 40.17949 | -3.47562 | 5934 ft | 250 kts | 131° |
| 2026-05-07 18:18 | 40.17120 | -3.45651 | 5810 ft | 244 kts | 105° |
| 2026-05-07 18:18 | 40.17144 | -3.43485 | 5683 ft | 239 kts | 74° |
| 2026-05-07 18:18 | 40.17972 | -3.41658 | 5544 ft | 234 kts | 47° |
| 2026-05-07 18:18 | 40.19294 | -3.40457 | 5297 ft | 232 kts | 25° |
| 2026-05-07 18:19 | 40.20834 | -3.39836 | 5060 ft | 234 kts | 8° |
| 2026-05-07 18:19 | 40.22464 | -3.39869 | 4997 ft | 236 kts | 353° |
| 2026-05-07 18:19 | 40.24097 | -3.40186 | 5012 ft | 238 kts | 351° |
| 2026-05-07 18:19 | 40.25727 | -3.40547 | 5016 ft | 237 kts | 351° |
| 2026-05-07 18:20 | 40.27361 | -3.40908 | 5014 ft | 237 kts | 351° |
| 2026-05-07 18:20 | 40.28987 | -3.41273 | 5007 ft | 237 kts | 350° |
| 2026-05-07 18:20 | 40.30612 | -3.41636 | 5013 ft | 238 kts | 350° |
| 2026-05-07 18:20 | 40.32242 | -3.42000 | 5012 ft | 238 kts | 350° |
| 2026-05-07 18:21 | 40.33783 | -3.42719 | 4965 ft | 237 kts | 326° |
| 2026-05-07 18:21 | 40.35093 | -3.43998 | 4725 ft | 234 kts | 321° |
| 2026-05-07 18:21 | 40.36370 | -3.45318 | 4424 ft | 233 kts | 322° |
| 2026-05-07 18:21 | 40.37644 | -3.46615 | 4131 ft | 230 kts | 323° |
| 2026-05-07 18:22 | 40.38896 | -3.47881 | 3797 ft | 218 kts | 323° |
| 2026-05-07 18:22 | 40.39282 | -3.48272 | 3689 ft | 215 kts | 323° |
| 2026-05-07 18:22 | 40.41203 | -3.50215 | 3257 ft | 199 kts | 323° |
| 2026-05-07 18:22 | 40.42227 | -3.51253 | 2973 ft | 174 kts | 323° |
| 2026-05-07 18:23 | 40.43128 | -3.52166 | 2753 ft | 155 kts | 324° |
| 2026-05-07 18:23 | 40.43959 | -3.53007 | 2556 ft | 148 kts | 324° |
| 2026-05-07 18:23 | 40.44495 | -3.53546 | 2426 ft | 144 kts | 324° |
| 2026-05-07 18:23 | 40.45550 | -3.54603 | 2162 ft | 141 kts | 323° |
| 2026-05-07 18:24 | 40.46324 | -3.55387 | 2007 ft | 140 kts | 324° |
| 2026-05-07 18:24 | 40.47069 | -3.56146 | 1960 ft | 123 kts | 323° |
| 2026-05-07 18:24 | 40.47608 | -3.56701 | 1972 ft | 73 kts | 322° |
| 2026-05-07 18:24 | 40.47908 | -3.57003 | 1974 ft | 47 kts | 321° |
| 2026-05-07 18:25 | 40.48099 | -3.57217 | 1978 ft | 32 kts | 309° |
| 2026-05-07 18:25 | 40.48173 | -3.57420 | 1983 ft | 12 kts | 290° |
| 2026-05-07 18:25 | 40.48176 | -3.57463 | 1984 ft | 0 kts | 263° |
| 2026-05-07 18:25 | 40.48173 | -3.57472 | 1986 ft | 0 kts | 251° |
| 2026-05-07 18:26 | 40.48173 | -3.57480 | 1985 ft | 3 kts | 259° |
| 2026-05-07 18:26 | 40.48183 | -3.57511 | 1984 ft | 12 kts | 304° |
| 2026-05-07 18:26 | 40.48240 | -3.57606 | 1985 ft | 13 kts | 309° |
| 2026-05-07 18:26 | 40.48310 | -3.57690 | 1989 ft | 13 kts | 324° |
| 2026-05-07 18:27 | 40.48368 | -3.57748 | 1989 ft | 9 kts | 322° |
| 2026-05-07 18:27 | 40.48428 | -3.57807 | 1986 ft | 13 kts | 324° |
| 2026-05-07 18:27 | 40.48492 | -3.57853 | 1985 ft | 8 kts | 332° |
| 2026-05-07 18:27 | 40.48528 | -3.57879 | 1983 ft | 6 kts | 332° |
| 2026-05-07 18:28 | 40.48536 | -3.57923 | 1984 ft | 6 kts | 243° |
| 2026-05-07 18:28 | 40.48514 | -3.58012 | 1980 ft | 15 kts | 270° |
| 2026-05-07 18:28 | 40.48514 | -3.58169 | 1976 ft | 19 kts | 270° |
| 2026-05-07 18:28 | 40.48514 | -3.58335 | 1972 ft | 15 kts | 268° |
| 2026-05-07 18:29 | 40.48513 | -3.58455 | 1969 ft | 12 kts | 270° |
| 2026-05-07 18:29 | 40.48513 | -3.58580 | 1967 ft | 16 kts | 272° |
| 2026-05-07 18:29 | 40.48589 | -3.58683 | 1964 ft | 16 kts | 290° |
| 2026-05-07 18:29 | 40.48623 | -3.58811 | 1962 ft | 14 kts | 320° |
| 2026-05-07 18:30 | 40.48730 | -3.58819 | 1960 ft | 17 kts | 2° |
| 2026-05-07 18:30 | 40.48836 | -3.58820 | 1958 ft | 16 kts | 359° |
| 2026-05-07 18:30 | 40.48961 | -3.58821 | 1955 ft | 19 kts | 0° |
| 2026-05-07 18:30 | 40.49098 | -3.58822 | 1952 ft | 17 kts | 0° |
| 2026-05-07 18:31 | 40.49146 | -3.58821 | 1951 ft | 0 kts | 356° |
| 2026-05-07 18:31 | 40.49147 | -3.58823 | 1951 ft | 0 kts | 342° |
| 2026-05-07 18:31 | 40.49148 | -3.58826 | 1951 ft | 0 kts | 314° |
| 2026-05-07 18:31 | 40.49146 | -3.58831 | 1951 ft | 1 kts | 275° |
| 2026-05-07 18:32 | 40.49145 | -3.58840 | 1954 ft | 3 kts | 258° |
| 2026-05-07 18:32 | 40.49123 | -3.58898 | 1952 ft | 7 kts | 252° |
| 2026-05-07 18:32 | 40.49122 | -3.58955 | 1952 ft | 6 kts | 270° |
| 2026-05-07 18:32 | 40.49123 | -3.58987 | 1953 ft | 1 kts | 270° |
| 2026-05-07 18:33 | 40.49123 | -3.58989 | 1953 ft | 0 kts | 270° |